createdAt,value
2023-03-17T12:02:42.744Z,82.00
2023-03-17T12:04:55.059Z,83.00
2023-03-17T12:06:32.702Z,83.75
2023-03-17T12:08:44.333Z,79.25
2023-03-17T12:11:02.758Z,72.50
2023-03-17T12:13:12.907Z,69.25
2023-03-17T12:14:54.776Z,73.00
2023-03-17T12:16:50.454Z,68.40
2023-03-17T12:18:46.585Z,71.60
2023-03-17T12:20:30.629Z,67.40
2023-03-17T12:22:08.630Z,66.80
2023-03-17T12:24:18.952Z,62.20
2023-03-17T12:26:16.675Z,60.50
2023-03-17T12:28:28.600Z,56.75
2023-03-17T12:30:23.202Z,50.25
2023-03-17T12:32:27.915Z,64.00
2023-03-17T12:34:03.399Z,46.75
2023-03-17T12:35:39.729Z,42.00
2023-03-17T12:37:12.892Z,38.25
2023-03-17T12:39:31.096Z,37.25
2023-03-17T12:41:21.150Z,36.00
2023-03-17T12:43:23.434Z,36.25
2023-03-17T12:45:43.498Z,36.25
2023-03-17T12:47:52.470Z,34.75
2023-03-17T12:49:33.167Z,32.50
2023-03-17T12:51:27.899Z,34.75
2023-03-17T12:53:29.871Z,38.00
2023-03-17T12:55:06.710Z,39.50
2023-03-17T12:56:38.749Z,41.00
2023-03-17T12:59:00.845Z,43.00
2023-03-17T13:00:34.104Z,46.50
2023-03-17T13:02:54.244Z,44.25
2023-03-17T13:04:38.077Z,49.50
2023-03-17T13:08:41.186Z,53.50
2023-03-17T13:10:22.578Z,51.75
2023-03-17T13:11:59.909Z,52.25
2023-03-17T13:13:48.199Z,50.75
2023-03-17T13:15:33.217Z,55.75
2023-03-17T13:17:51.446Z,54.33
2023-03-17T13:19:25.629Z,55.50
2023-03-17T13:20:57.771Z,55.25
2023-03-17T13:22:42.604Z,66.80
2023-03-17T13:24:43.268Z,65.60
2023-03-17T13:26:24.252Z,70.00
2023-03-17T13:28:26.332Z,67.75
2023-03-17T13:29:59.138Z,65.00
2023-03-17T13:31:36.841Z,70.80
2023-03-17T13:33:12.688Z,74.75
2023-03-17T13:35:11.337Z,76.50
2023-03-17T13:37:02.678Z,75.50
2023-03-17T13:38:37.813Z,66.50
2023-03-17T13:40:39.169Z,74.75
2023-03-17T13:42:34.916Z,78.50
2023-03-17T13:44:24.847Z,79.00
2023-03-17T13:46:02.977Z,79.50
2023-03-17T13:47:36.708Z,76.25
2023-03-17T13:49:26.190Z,78.75
2023-03-17T13:51:14.471Z,78.50
2023-03-17T13:52:58.052Z,83.50
2023-03-17T13:54:35.102Z,81.75
2023-03-17T13:56:23.788Z,80.25
2023-03-17T13:58:11.168Z,81.50
2023-03-17T14:00:27.735Z,81.50
2023-03-17T14:02:30.174Z,83.00
2023-03-17T14:04:06.280Z,83.75
2023-03-17T14:05:38.318Z,85.50
2023-03-17T14:07:17.091Z,84.00
2023-03-17T14:08:54.526Z,82.00
2023-03-17T14:10:28.285Z,77.75
2023-03-17T14:12:00.706Z,81.50
2023-03-17T14:13:54.534Z,86.25
2023-03-17T14:15:46.660Z,84.75
2023-03-17T14:17:28.246Z,77.50
2023-03-17T14:19:32.519Z,77.50
2023-03-17T14:21:10.493Z,86.00
2023-03-17T14:22:59.246Z,86.50
2023-03-17T14:24:39.299Z,84.25
2023-03-17T14:26:40.553Z,82.25
2023-03-17T14:28:37.578Z,75.25
2023-03-17T14:30:56.140Z,76.25
2023-03-17T14:32:34.398Z,75.75
2023-03-17T14:36:39.329Z,78.75
2023-03-17T14:38:47.201Z,75.75
2023-03-17T14:40:45.638Z,74.20
2023-03-17T14:42:32.065Z,71.00
2023-03-17T14:44:08.722Z,71.80
2023-03-17T14:45:51.975Z,68.40
2023-03-17T14:47:24.623Z,68.60
2023-03-17T14:49:25.618Z,68.20
2023-03-17T14:51:05.601Z,66.00
2023-03-17T14:52:41.281Z,63.00
2023-03-17T14:54:26.114Z,59.25
2023-03-17T14:56:01.373Z,54.00
2023-03-17T14:57:33.610Z,59.75
2023-03-17T14:59:07.448Z,55.25
2023-03-17T15:00:46.316Z,56.25
2023-03-17T15:02:28.699Z,52.00
2023-03-17T15:04:53.196Z,52.25
2023-03-17T15:06:26.994Z,50.00
2023-03-17T15:07:59.082Z,48.25
2023-03-17T15:09:33.726Z,40.00
2023-03-17T15:11:05.942Z,46.25
2023-03-17T15:12:38.337Z,46.75
2023-03-17T15:14:13.992Z,35.00
2023-03-17T15:15:50.824Z,36.75
2023-03-17T15:17:29.225Z,34.00
2023-03-17T15:19:34.878Z,35.25
2023-03-17T15:21:33.528Z,35.00
2023-03-17T15:23:41.338Z,35.25
2023-03-17T15:28:19.379Z,28.00
2023-03-17T15:30:19.393Z,26.80
2023-03-17T15:31:52.920Z,25.40
2023-03-17T15:34:01.378Z,28.40
2023-03-17T15:35:38.525Z,26.60
2023-03-17T15:39:17.256Z,24.60
2023-03-17T15:41:17.456Z,22.80
2023-03-17T15:43:18.131Z,23.20
2023-03-17T15:44:55.604Z,19.00
2023-03-17T15:46:32.181Z,19.80
2023-03-17T15:48:04.157Z,16.00
2023-03-17T15:49:36.745Z,21.40
2023-03-17T15:51:13.377Z,20.20
2023-03-17T15:52:45.986Z,19.40
2023-03-17T15:54:18.609Z,17.20
2023-03-17T15:55:53.461Z,15.60
2023-03-17T15:57:33.170Z,17.00
2023-03-17T15:59:08.460Z,15.40
2023-03-17T16:00:45.836Z,17.60
2023-03-17T16:02:35.177Z,17.40
2023-03-17T16:04:31.651Z,16.20
2023-03-17T16:06:05.047Z,9.60
2023-03-17T16:07:36.997Z,16.40
2023-03-17T16:09:21.753Z,13.20
2023-03-17T16:10:58.325Z,12.00
2023-03-17T16:12:30.301Z,12.80
2023-03-17T16:14:02.318Z,14.00
2023-03-17T16:15:39.519Z,13.20
2023-03-17T16:17:28.879Z,14.40
2023-03-17T16:19:01.356Z,12.80
2023-03-17T16:20:39.227Z,14.60
2023-03-17T16:22:38.696Z,14.00
2023-03-17T16:25:01.832Z,10.80
2023-03-17T16:28:14.453Z,12.60
2023-03-17T16:29:49.642Z,12.00
2023-03-17T16:31:26.076Z,12.00
2023-03-17T16:33:47.904Z,12.80
2023-03-17T16:35:23.944Z,8.00
2023-03-17T16:37:03.257Z,12.20
2023-03-17T16:38:35.254Z,10.60
2023-03-17T16:40:17.374Z,10.20
2023-03-17T16:41:52.259Z,11.60
2023-03-17T16:43:56.222Z,8.20
2023-03-17T16:45:29.946Z,10.60
2023-03-17T16:47:02.086Z,9.60
2023-03-17T16:48:34.429Z,9.20
2023-03-17T16:50:45.403Z,9.40
2023-03-17T16:52:42.572Z,9.80
2023-03-17T16:54:17.087Z,9.00
2023-03-17T16:56:44.733Z,11.00
2023-03-17T16:58:42.220Z,10.00
2023-03-17T17:00:26.344Z,9.60
2023-03-17T17:02:27.096Z,8.20
2023-03-17T17:04:33.291Z,10.00
2023-03-17T17:06:07.256Z,9.40
2023-03-17T17:07:40.878Z,9.80
2023-03-17T17:09:37.866Z,10.80
2023-03-17T17:11:16.513Z,10.60
2023-03-17T17:12:51.374Z,9.40
2023-03-17T17:14:24.325Z,9.60
2023-03-17T17:16:00.027Z,9.00
2023-03-17T17:17:32.061Z,11.00
2023-03-17T17:19:04.439Z,10.80
2023-03-17T17:20:39.463Z,6.00
2023-03-17T17:23:01.522Z,7.40
2023-03-17T17:24:38.880Z,8.60
2023-03-17T17:26:19.738Z,8.60
2023-03-17T17:30:01.137Z,8.60
2023-03-17T17:31:33.356Z,3.00
2023-03-17T17:33:05.460Z,9.20
2023-03-17T17:34:37.488Z,8.00
2023-03-17T17:36:34.500Z,9.00
2023-03-17T17:38:08.148Z,9.20
2023-03-17T17:39:44.976Z,8.60
2023-03-17T17:41:22.508Z,7.40
2023-03-17T17:42:57.925Z,10.20
2023-03-17T17:44:54.537Z,8.40
2023-03-17T17:46:26.622Z,9.00
2023-03-17T17:47:58.574Z,8.40
2023-03-17T17:49:32.454Z,10.00
2023-03-17T17:51:11.897Z,5.00
2023-03-17T17:52:46.070Z,8.80
2023-03-17T17:54:25.131Z,7.80
2023-03-17T17:55:59.949Z,9.00
2023-03-17T17:57:34.937Z,8.80
2023-03-17T17:59:11.748Z,8.00
2023-03-17T18:01:19.367Z,8.40
2023-03-17T18:02:53.329Z,9.60
2023-03-17T18:04:26.178Z,8.60
2023-03-17T18:05:59.642Z,9.60
2023-03-17T18:07:34.892Z,9.60
2023-03-17T18:09:09.007Z,9.00
2023-03-17T18:10:43.598Z,7.00
2023-03-17T18:12:19.444Z,8.00
2023-03-17T18:13:53.492Z,9.00
2023-03-17T18:15:26.640Z,9.00
2023-03-17T18:16:58.672Z,9.40
2023-03-17T18:18:35.296Z,8.60
2023-03-17T18:20:14.675Z,7.00
2023-03-17T18:22:13.654Z,8.40
2023-03-17T18:23:50.110Z,9.00
2023-03-17T18:27:49.330Z,8.60
2023-03-17T18:29:22.071Z,7.80
2023-03-17T18:31:46.710Z,8.20
2023-03-17T18:33:21.027Z,8.00
2023-03-17T18:34:55.143Z,9.40
2023-03-17T18:39:36.225Z,8.80
2023-03-17T18:41:37.129Z,8.40
2023-03-17T18:43:13.745Z,8.60
2023-03-17T18:44:48.825Z,8.40
2023-03-17T18:46:23.885Z,7.80
2023-03-17T18:48:25.053Z,9.00
2023-03-17T18:49:58.269Z,9.00
2023-03-17T18:51:37.513Z,9.60
2023-03-17T18:53:40.438Z,9.20
2023-03-17T18:55:18.551Z,9.00
2023-03-17T18:56:50.729Z,8.00
2023-03-17T18:58:23.317Z,9.00
2023-03-17T19:02:25.996Z,9.60
2023-03-17T19:03:59.735Z,9.00
2023-03-17T19:05:38.210Z,9.00
2023-03-17T19:07:14.853Z,8.00
2023-03-17T19:08:51.345Z,10.20
2023-03-17T19:10:24.340Z,12.00
2023-03-17T19:11:56.257Z,12.80
2023-03-17T19:13:29.457Z,10.20
2023-03-17T19:15:02.383Z,6.40
2023-03-17T19:16:34.717Z,10.60
2023-03-17T19:18:06.946Z,9.60
2023-03-17T19:19:38.997Z,7.80
2023-03-17T19:21:13.361Z,10.00
2023-03-17T19:22:47.654Z,10.00
2023-03-17T19:24:25.139Z,10.60
2023-03-17T19:25:58.842Z,12.00
2023-03-17T19:27:30.812Z,21.60
2023-03-17T19:29:02.812Z,34.00
2023-03-17T19:33:22.180Z,54.75
2023-03-17T19:34:54.070Z,57.50
2023-03-17T19:36:26.229Z,58.75
2023-03-17T19:37:58.224Z,62.60
2023-03-17T19:39:31.458Z,67.60
2023-03-17T19:41:03.939Z,70.00
2023-03-17T19:42:36.001Z,73.00
2023-03-17T19:44:07.941Z,71.50
2023-03-17T19:45:39.897Z,78.75
2023-03-17T19:47:36.956Z,77.50
2023-03-17T19:49:08.866Z,76.75
2023-03-17T19:51:05.742Z,78.25
2023-03-17T19:52:37.897Z,84.00
2023-03-17T19:54:14.977Z,90.75
2023-03-17T19:55:47.029Z,92.25
2023-03-17T19:57:22.183Z,94.75
2023-03-17T19:58:54.328Z,105.75
2023-03-17T20:00:26.826Z,101.75
2023-03-17T20:02:02.911Z,109.50
2023-03-17T20:03:35.608Z,108.25
2023-03-17T20:05:07.721Z,107.75
2023-03-17T20:06:39.685Z,107.00
2023-03-17T20:08:12.074Z,104.75
2023-03-17T20:10:14.484Z,112.00
2023-03-17T20:11:49.685Z,105.00
2023-03-17T20:13:26.017Z,113.25
2023-03-17T20:15:01.187Z,113.75
2023-03-17T20:16:41.509Z,125.00
2023-03-17T20:18:14.398Z,126.50
2023-03-17T20:19:50.257Z,124.50
2023-03-17T20:21:23.830Z,124.00
2023-03-17T20:23:02.211Z,123.50
2023-03-17T20:24:34.879Z,130.00
2023-03-17T20:26:07.783Z,130.67
2023-03-17T20:27:42.652Z,122.00
2023-03-17T20:29:17.637Z,128.00
2023-03-17T20:30:52.629Z,121.67
2023-03-17T20:32:24.819Z,124.00
2023-03-17T20:33:56.937Z,128.67
2023-03-17T20:35:29.333Z,123.25
2023-03-17T20:37:02.373Z,124.00
2023-03-17T20:38:37.058Z,121.00
2023-03-17T20:40:10.970Z,113.50
2023-03-17T20:41:42.967Z,117.00
2023-03-17T20:43:19.244Z,111.50
2023-03-17T20:44:56.890Z,110.00
2023-03-17T20:46:28.817Z,110.75
2023-03-17T20:48:02.113Z,107.75
2023-03-17T20:49:34.285Z,255.00
2023-03-17T20:51:06.575Z,198.75
2023-03-17T20:52:38.676Z,176.00
2023-03-17T20:54:11.324Z,160.25
2023-03-17T20:55:47.726Z,147.33
2023-03-17T20:57:19.728Z,130.33
2023-03-17T20:58:53.365Z,136.33
2023-03-17T21:00:32.170Z,126.33
2023-03-17T21:02:05.064Z,127.67
2023-03-17T21:03:40.160Z,120.00
2023-03-17T21:05:23.230Z,127.67
2023-03-17T21:06:55.085Z,119.00
2023-03-17T21:08:26.970Z,114.75
2023-03-17T21:10:02.083Z,113.75
2023-03-17T21:11:33.955Z,111.00
2023-03-17T21:13:06.673Z,106.25
2023-03-17T21:14:38.664Z,94.75
2023-03-17T21:16:21.805Z,100.75
2023-03-17T21:17:55.776Z,104.50
2023-03-17T21:19:27.789Z,102.50
2023-03-17T21:20:59.695Z,91.25
2023-03-17T21:22:34.220Z,89.25
2023-03-17T21:24:08.635Z,86.50
2023-03-17T21:25:43.492Z,90.25
2023-03-17T21:27:18.185Z,89.00
2023-03-17T21:28:53.361Z,84.00
2023-03-17T21:30:28.110Z,83.75
2023-03-17T21:32:05.493Z,83.00
2023-03-17T21:33:37.348Z,89.50
2023-03-17T21:35:09.709Z,97.50
2023-03-17T21:36:44.676Z,97.75
2023-03-17T21:38:18.230Z,97.25
2023-03-17T21:39:55.224Z,100.50
2023-03-17T21:41:33.396Z,99.75
2023-03-17T21:43:05.880Z,95.50
2023-03-17T21:44:45.869Z,101.75
2023-03-17T21:46:21.548Z,95.00
2023-03-17T21:47:53.728Z,96.25
2023-03-17T21:49:25.680Z,96.25
2023-03-17T21:50:57.934Z,96.25
2023-03-17T21:52:29.846Z,89.75
2023-03-17T21:54:02.349Z,91.75
2023-03-17T21:55:35.879Z,92.75
2023-03-17T21:57:07.798Z,91.75
2023-03-17T21:58:39.819Z,90.75
2023-03-17T22:00:13.549Z,85.00
2023-03-17T22:01:46.713Z,87.25
2023-03-17T22:03:43.439Z,78.25
2023-03-17T22:05:17.788Z,84.00
2023-03-17T22:06:52.171Z,81.75
2023-03-17T22:08:31.036Z,77.25
2023-03-17T22:10:06.405Z,86.00
2023-03-17T22:12:04.421Z,89.50
2023-03-17T22:13:36.325Z,96.75
2023-03-17T22:15:15.410Z,96.25
2023-03-17T22:16:48.450Z,93.00
2023-03-17T22:18:21.506Z,97.75
2023-03-17T22:19:54.281Z,101.75
2023-03-17T22:21:26.854Z,96.50
2023-03-17T22:23:02.429Z,96.25
2023-03-17T22:24:34.284Z,95.25
2023-03-17T22:26:06.739Z,93.50
2023-03-17T22:27:38.616Z,92.50
2023-03-17T22:29:12.513Z,115.75
2023-03-17T22:31:24.211Z,125.75
2023-03-17T22:32:58.195Z,110.00
2023-03-17T22:34:36.928Z,101.50
2023-03-17T22:36:12.504Z,87.00
2023-03-17T22:37:50.036Z,84.25
2023-03-17T22:39:21.932Z,78.50
2023-03-17T22:41:04.060Z,63.00
2023-03-17T22:42:35.978Z,83.25
2023-03-17T22:44:12.316Z,85.25
2023-03-17T22:45:49.796Z,81.00
2023-03-17T22:47:27.139Z,79.00
2023-03-17T22:49:03.131Z,88.00
2023-03-17T22:50:35.137Z,81.50
2023-03-17T22:52:07.144Z,81.50
2023-03-17T22:53:39.531Z,81.50
2023-03-17T22:55:36.712Z,86.75
2023-03-17T22:57:08.920Z,82.25
2023-03-17T22:59:06.055Z,84.75
2023-03-17T23:00:38.173Z,78.50
2023-03-17T23:02:35.812Z,78.50
2023-03-17T23:04:07.999Z,74.25
2023-03-17T23:05:47.886Z,75.75
2023-03-17T23:07:22.474Z,76.50
2023-03-17T23:08:56.307Z,72.60
2023-03-17T23:10:28.685Z,75.50
2023-03-17T23:12:00.739Z,73.40
2023-03-17T23:13:32.829Z,72.20
2023-03-17T23:15:05.327Z,71.60
2023-03-17T23:16:37.924Z,66.00
2023-03-17T23:18:11.656Z,70.20
2023-03-17T23:19:47.653Z,67.80
2023-03-17T23:21:26.951Z,69.00
2023-03-17T23:23:01.656Z,63.00
2023-03-17T23:24:33.541Z,60.60
2023-03-17T23:26:06.166Z,61.50
2023-03-17T23:27:38.792Z,60.75
2023-03-17T23:29:13.607Z,58.50
2023-03-17T23:30:50.441Z,57.50
2023-03-17T23:32:23.003Z,60.00
2023-03-17T23:33:55.004Z,56.25
